createdAt,value
2019-04-04T00:01:35.766Z,7.87
2019-04-04T00:04:05.116Z,6.90
2019-04-04T00:06:34.497Z,6.20
2019-04-04T00:09:05.540Z,6.63
2019-04-04T00:11:35.017Z,7.07
2019-04-04T00:14:05.908Z,6.77
2019-04-04T00:16:35.240Z,5.70
2019-04-04T00:19:04.600Z,5.70
2019-04-04T00:21:34.547Z,5.90
2019-04-04T00:24:04.019Z,5.73
2019-04-04T00:26:33.356Z,5.63
2019-04-04T00:29:02.772Z,5.10
2019-04-04T00:31:32.124Z,5.00
2019-04-04T00:34:01.471Z,4.53
2019-04-04T00:36:33.741Z,5.60
2019-04-04T00:39:01.811Z,5.90
2019-04-04T00:41:31.167Z,8.00
2019-04-04T00:44:00.510Z,6.57
2019-04-04T00:46:31.001Z,5.47
2019-04-04T00:49:00.920Z,5.60
2019-04-04T00:51:30.276Z,6.23
2019-04-04T00:53:59.613Z,6.47
2019-04-04T00:56:28.974Z,6.33
2019-04-04T00:58:58.313Z,5.53
2019-04-04T01:01:27.672Z,6.33
2019-04-04T01:03:57.000Z,5.60
2019-04-04T01:06:26.352Z,6.00
2019-04-04T01:08:55.685Z,6.27
2019-04-04T01:11:25.032Z,5.67
2019-04-04T01:13:57.564Z,7.07
2019-04-04T01:16:25.396Z,6.10
2019-04-04T01:18:54.728Z,5.93
2019-04-04T01:21:24.100Z,6.50
2019-04-04T01:23:53.423Z,6.17
2019-04-04T01:26:22.776Z,5.27
2019-04-04T01:28:52.220Z,5.60
2019-04-04T01:31:21.577Z,6.20
2019-04-04T01:33:51.713Z,7.30
2019-04-04T01:36:21.109Z,6.80
2019-04-04T01:38:50.461Z,6.57
2019-04-04T01:41:19.812Z,6.37
2019-04-04T01:43:49.144Z,6.83
2019-04-04T01:46:18.504Z,7.83
2019-04-04T01:48:49.741Z,6.63
2019-04-04T01:51:18.986Z,6.27
2019-04-04T01:53:48.336Z,6.17
2019-04-04T01:56:17.687Z,5.87
2019-04-04T01:58:47.033Z,5.97
2019-04-04T02:01:17.051Z,6.63
2019-04-04T02:03:46.444Z,6.30
2019-04-04T02:06:15.802Z,5.70
2019-04-04T02:08:45.150Z,5.40
2019-04-04T02:11:14.508Z,5.57
2019-04-04T02:13:43.865Z,6.87
2019-04-04T02:16:14.882Z,6.10
2019-04-04T02:18:44.220Z,7.53
2019-04-04T02:21:13.590Z,6.30
2019-04-04T02:23:42.920Z,7.50
2019-04-04T02:26:12.299Z,7.70
2019-04-04T02:28:41.640Z,6.60
2019-04-04T02:31:11.459Z,5.97
2019-04-04T02:33:40.789Z,5.50
2019-04-04T02:36:10.146Z,6.70
2019-04-04T02:38:39.485Z,7.00
2019-04-04T02:41:08.853Z,6.10
2019-04-04T02:43:38.184Z,6.40
2019-04-04T02:46:11.046Z,5.83
2019-04-04T02:48:38.544Z,6.70
2019-04-04T02:51:08.342Z,8.17
2019-04-04T02:53:37.854Z,6.60
2019-04-04T02:56:07.209Z,6.80
2019-04-04T02:58:36.544Z,7.70
2019-04-04T03:01:05.904Z,7.23
2019-04-04T03:03:35.256Z,7.63
2019-04-04T03:06:04.618Z,7.40
2019-04-04T03:08:36.714Z,7.50
2019-04-04T03:11:05.466Z,6.27
2019-04-04T03:13:34.791Z,6.83
2019-04-04T03:16:04.192Z,6.13
2019-04-04T03:18:34.783Z,6.43
2019-04-04T03:21:04.549Z,6.60
2019-04-04T03:23:33.998Z,8.33
2019-04-04T03:26:03.342Z,8.43
2019-04-04T03:28:32.684Z,8.90
2019-04-04T03:31:03.568Z,8.73
2019-04-04T03:33:33.101Z,7.47
2019-04-04T03:36:02.413Z,9.60
2019-04-04T03:38:31.783Z,8.03
2019-04-04T03:41:01.107Z,7.23
2019-04-04T03:43:30.504Z,6.73
2019-04-04T03:46:01.330Z,6.60
2019-04-04T03:48:31.024Z,6.83
2019-04-04T03:51:03.586Z,8.50
2019-04-04T03:53:31.367Z,8.93
2019-04-04T03:56:01.474Z,7.63
2019-04-04T03:58:31.076Z,6.97
2019-04-04T04:01:00.523Z,6.67
2019-04-04T04:03:29.888Z,7.77
2019-04-04T04:05:59.228Z,7.67
2019-04-04T04:08:28.610Z,6.00
2019-04-04T04:10:57.948Z,5.80
2019-04-04T04:13:27.353Z,7.50
2019-04-04T04:15:56.706Z,7.03
2019-04-04T04:18:26.072Z,9.30
2019-04-04T04:20:55.416Z,9.90
2019-04-04T04:23:24.787Z,9.20
2019-04-04T04:25:54.140Z,9.50
2019-04-04T04:28:23.516Z,10.97
2019-04-04T04:30:52.883Z,9.70
2019-04-04T04:33:22.256Z,7.87
2019-04-04T04:35:51.606Z,7.23
2019-04-04T04:38:25.561Z,7.57
2019-04-04T04:40:51.975Z,8.60
2019-04-04T04:43:21.354Z,8.90
2019-04-04T04:45:50.700Z,6.70
2019-04-04T04:48:20.081Z,6.70
2019-04-04T04:50:49.424Z,8.63
2019-04-04T04:53:19.577Z,7.20
2019-04-04T04:55:49.054Z,10.40
2019-04-04T04:58:18.420Z,7.50
2019-04-04T05:00:47.929Z,7.50
2019-04-04T05:03:17.344Z,6.73
2019-04-04T05:05:46.697Z,6.80
2019-04-04T05:08:16.068Z,6.13
2019-04-04T05:10:45.897Z,6.13
2019-04-04T05:13:15.684Z,8.40
2019-04-04T05:15:45.105Z,9.10
2019-04-04T05:18:16.339Z,8.67
2019-04-04T05:20:45.478Z,7.47
2019-04-04T05:23:15.499Z,6.03
2019-04-04T05:25:53.760Z,9.37
2019-04-04T05:28:16.628Z,7.83
2019-04-04T05:30:47.174Z,6.20
2019-04-04T05:33:17.026Z,7.90
2019-04-04T05:35:46.396Z,6.93
2019-04-04T05:38:15.768Z,7.70
2019-04-04T05:40:45.134Z,7.13
2019-04-04T05:43:15.060Z,7.30
2019-04-04T05:45:45.247Z,7.57
2019-04-04T05:48:15.299Z,7.37
2019-04-04T05:50:44.651Z,8.13
2019-04-04T05:53:13.951Z,7.03
2019-04-04T05:55:43.299Z,7.30
2019-04-04T05:58:12.669Z,6.03
2019-04-04T06:00:44.338Z,6.33
2019-04-04T06:03:15.165Z,7.77
2019-04-04T06:05:44.715Z,7.17
2019-04-04T06:08:14.069Z,6.20
2019-04-04T06:10:43.411Z,5.53
2019-04-04T06:13:12.771Z,5.27
2019-04-04T06:15:42.116Z,6.23
2019-04-04T06:18:12.049Z,5.73
2019-04-04T06:20:41.448Z,5.40
2019-04-04T06:23:10.816Z,6.47
2019-04-04T06:25:40.165Z,5.20
2019-04-04T06:28:09.894Z,5.33
2019-04-04T06:30:43.390Z,4.00
2019-04-04T06:33:11.599Z,5.40
2019-04-04T06:35:40.944Z,5.10
2019-04-04T06:38:10.312Z,4.77
2019-04-04T06:40:39.660Z,6.63
2019-04-04T06:43:11.516Z,6.10
2019-04-04T06:45:40.016Z,5.97
2019-04-04T06:48:09.399Z,4.57
2019-04-04T06:50:41.423Z,4.87
2019-04-04T06:53:09.761Z,5.03
2019-04-04T06:55:40.262Z,4.40
2019-04-04T06:58:09.797Z,4.53
2019-04-04T07:00:41.887Z,4.97
2019-04-04T07:03:10.128Z,4.80
2019-04-04T07:05:39.465Z,4.20
2019-04-04T07:08:08.830Z,3.87
2019-04-04T07:10:38.181Z,4.80
2019-04-04T07:13:21.142Z,5.10
2019-04-04T07:15:46.834Z,3.47
2019-04-04T07:18:10.129Z,4.73
2019-04-04T07:20:40.599Z,4.60
2019-04-04T07:23:09.964Z,3.70
2019-04-04T07:25:39.881Z,3.80
2019-04-04T07:28:09.589Z,3.70
2019-04-04T07:30:38.958Z,5.40
2019-04-04T07:33:11.788Z,3.90
2019-04-04T07:35:39.319Z,4.40
2019-04-04T07:38:08.685Z,4.50
2019-04-04T07:40:38.027Z,4.60
2019-04-04T07:43:08.726Z,4.77
2019-04-04T07:45:38.148Z,5.50
2019-04-04T07:48:07.487Z,4.60
2019-04-04T07:50:36.851Z,4.43
2019-04-04T07:53:06.339Z,4.90
2019-04-04T07:55:35.721Z,5.10
2019-04-04T07:58:05.124Z,4.73
2019-04-04T08:00:34.494Z,4.83
2019-04-04T08:03:04.068Z,4.83
2019-04-04T08:05:33.436Z,3.70
2019-04-04T08:08:02.776Z,5.50
2019-04-04T08:10:32.140Z,4.27
2019-04-04T08:13:01.484Z,5.30
2019-04-04T08:15:31.442Z,4.70
2019-04-04T08:18:00.790Z,5.40
2019-04-04T08:20:30.159Z,4.90
2019-04-04T08:22:59.509Z,4.33
2019-04-04T08:25:28.883Z,4.07
2019-04-04T08:27:58.288Z,3.80
2019-04-04T08:30:27.667Z,5.80
2019-04-04T08:32:57.020Z,4.87
2019-04-04T08:35:26.388Z,4.43
2019-04-04T08:37:56.068Z,4.70
2019-04-04T08:40:25.433Z,5.43
2019-04-04T08:42:54.771Z,6.53
2019-04-04T08:45:24.144Z,5.40
2019-04-04T08:47:53.485Z,7.90
2019-04-04T08:50:22.836Z,7.97
2019-04-04T08:52:52.175Z,7.10
2019-04-04T08:55:21.543Z,6.70
2019-04-04T08:57:50.891Z,5.93
2019-04-04T09:00:20.260Z,7.67
2019-04-04T09:02:49.600Z,8.20
2019-04-04T09:05:18.977Z,9.07
2019-04-04T09:07:48.316Z,9.10
2019-04-04T09:10:17.686Z,10.27
2019-04-04T09:12:47.024Z,9.70
2019-04-04T09:15:16.384Z,9.03
2019-04-04T09:17:45.749Z,9.40
2019-04-04T09:20:15.227Z,9.10
2019-04-04T09:22:44.584Z,13.43
2019-04-04T09:25:14.158Z,11.13
2019-04-04T09:27:43.501Z,12.83
2019-04-04T09:30:13.288Z,13.20
2019-04-04T09:32:42.650Z,13.50
2019-04-04T09:35:12.014Z,13.00
2019-04-04T09:37:41.363Z,14.00
2019-04-04T09:40:11.027Z,13.10
2019-04-04T09:42:40.377Z,13.40
2019-04-04T09:45:10.856Z,11.60
2019-04-04T09:47:40.225Z,11.60
2019-04-04T09:50:10.416Z,12.80
2019-04-04T09:52:39.803Z,14.47
2019-04-04T09:55:09.584Z,11.67
2019-04-04T09:57:38.867Z,11.10
2019-04-04T10:00:12.259Z,12.30
2019-04-04T10:02:42.094Z,12.87
2019-04-04T10:05:11.807Z,11.67
2019-04-04T10:07:41.095Z,11.60
2019-04-04T10:10:11.024Z,12.10
2019-04-04T10:12:40.397Z,11.50
2019-04-04T10:15:10.167Z,7.90
2019-04-04T10:17:39.513Z,6.53
2019-04-04T10:20:09.280Z,5.40
2019-04-04T10:22:38.644Z,5.90
2019-04-04T10:25:08.115Z,6.70
2019-04-04T10:27:37.465Z,6.97
2019-04-04T10:30:08.489Z,6.57
2019-04-04T10:32:37.848Z,6.20
2019-04-04T10:35:07.971Z,7.13
2019-04-04T10:37:37.309Z,7.00
2019-04-04T10:40:07.808Z,7.53
2019-04-04T10:42:37.356Z,6.57
2019-04-04T10:45:07.336Z,7.57
2019-04-04T10:47:36.693Z,9.37
2019-04-04T10:50:07.550Z,9.20
2019-04-04T10:52:36.901Z,8.47
2019-04-04T10:55:06.600Z,8.73
2019-04-04T10:57:35.943Z,8.37
2019-04-04T11:00:08.819Z,10.37
2019-04-04T11:02:38.272Z,9.40
2019-04-04T11:05:07.735Z,10.23
2019-04-04T11:07:37.084Z,11.80
2019-04-04T11:10:06.692Z,11.27
2019-04-04T11:12:36.071Z,11.80
2019-04-04T11:15:05.762Z,10.63
2019-04-04T11:17:35.119Z,9.83
2019-04-04T11:20:04.616Z,8.80
2019-04-04T11:22:33.971Z,10.80
2019-04-04T11:25:03.396Z,10.57
2019-04-04T11:27:32.736Z,10.60
2019-04-04T11:30:02.148Z,10.63
2019-04-04T11:32:31.509Z,10.40
2019-04-04T11:35:00.874Z,11.27
2019-04-04T11:37:30.168Z,10.00
2019-04-04T11:39:59.529Z,10.07
2019-04-04T11:42:28.911Z,10.87
2019-04-04T11:44:58.268Z,10.10
2019-04-04T11:47:27.648Z,11.13
2019-04-04T11:49:57.009Z,9.97
2019-04-04T11:52:26.380Z,11.43
2019-04-04T11:55:02.949Z,11.93
2019-04-04T11:57:32.329Z,9.80
2019-04-04T12:00:01.682Z,10.53
2019-04-04T12:02:32.740Z,11.20
2019-04-04T12:05:02.337Z,9.90
2019-04-04T12:07:31.716Z,10.67
2019-04-04T12:10:07.388Z,10.47
2019-04-04T12:12:32.418Z,9.67
2019-04-04T12:15:01.907Z,10.00
2019-04-04T12:17:31.771Z,9.90
2019-04-04T12:20:01.156Z,9.50
2019-04-04T12:22:31.705Z,9.83
2019-04-04T12:25:01.078Z,10.70
2019-04-04T12:27:30.444Z,9.53
2019-04-04T12:29:59.859Z,10.10
2019-04-04T12:32:29.251Z,10.77
2019-04-04T12:34:58.592Z,11.13
2019-04-04T12:37:27.968Z,8.90
2019-04-04T12:39:57.339Z,10.57
2019-04-04T12:42:26.704Z,10.97
2019-04-04T12:44:56.080Z,9.60
2019-04-04T12:47:25.484Z,10.00
2019-04-04T12:49:54.848Z,10.23
2019-04-04T12:52:24.229Z,9.17
2019-04-04T12:54:53.583Z,9.73
2019-04-04T12:57:22.980Z,10.40
2019-04-04T12:59:52.528Z,10.53
2019-04-04T13:02:22.209Z,9.97
2019-04-04T13:04:51.569Z,10.90
2019-04-04T13:07:20.936Z,10.80
2019-04-04T13:09:50.284Z,10.77
2019-04-04T13:12:19.670Z,10.40
2019-04-04T13:14:49.028Z,9.77
2019-04-04T13:17:18.408Z,10.07
2019-04-04T13:19:47.756Z,9.97
2019-04-04T13:22:17.132Z,10.33
2019-04-04T13:24:46.492Z,9.50
2019-04-04T13:27:17.768Z,10.07
2019-04-04T13:29:46.876Z,9.80
2019-04-04T13:32:16.282Z,9.33
2019-04-04T13:34:58.344Z,11.43
2019-04-04T13:37:16.693Z,8.80
2019-04-04T13:39:45.999Z,8.80
2019-04-04T13:42:15.378Z,8.77
2019-04-04T13:44:45.017Z,9.80
2019-04-04T13:47:14.427Z,11.67
2019-04-04T13:49:44.340Z,9.07
2019-04-04T13:52:14.456Z,9.00
2019-04-04T13:54:43.880Z,9.00
2019-04-04T13:57:13.277Z,10.20
2019-04-04T13:59:42.636Z,10.00
2019-04-04T14:02:12.019Z,11.03
2019-04-04T14:04:41.370Z,9.97
2019-04-04T14:07:10.749Z,10.33
2019-04-04T14:09:40.108Z,9.77
2019-04-04T14:12:09.420Z,10.10
2019-04-04T14:14:38.772Z,9.47
2019-04-04T14:17:08.144Z,10.40
2019-04-04T14:19:37.495Z,10.10
2019-04-04T14:22:06.875Z,12.07
2019-04-04T14:24:36.234Z,9.90
2019-04-04T14:27:05.806Z,11.53
2019-04-04T14:29:35.094Z,11.83
2019-04-04T14:32:04.505Z,11.67
2019-04-04T14:34:33.914Z,12.43
2019-04-04T14:37:03.288Z,11.87
2019-04-04T14:39:32.678Z,12.47
2019-04-04T14:42:02.015Z,13.13
2019-04-04T14:44:31.411Z,12.60
2019-04-04T14:47:00.792Z,13.40
2019-04-04T14:49:30.149Z,12.97
2019-04-04T14:51:59.515Z,12.77
2019-04-04T14:54:29.271Z,12.37
2019-04-04T14:56:59.246Z,13.03
2019-04-04T14:59:28.587Z,14.00
2019-04-04T15:01:57.955Z,12.60
2019-04-04T15:04:27.300Z,14.97
2019-04-04T15:06:56.667Z,14.80
2019-04-04T15:09:26.063Z,14.20
2019-04-04T15:11:55.464Z,13.30
2019-04-04T15:14:24.833Z,15.70
2019-04-04T15:16:54.317Z,13.90
2019-04-04T15:19:23.652Z,14.10
2019-04-04T15:21:53.027Z,13.90
2019-04-04T15:24:22.401Z,15.20
2019-04-04T15:26:51.749Z,13.43
2019-04-04T15:29:21.116Z,14.90
2019-04-04T15:31:50.497Z,16.23
2019-04-04T15:34:19.867Z,16.50
2019-04-04T15:36:49.236Z,16.13
2019-04-04T15:39:18.616Z,15.50
2019-04-04T15:41:47.985Z,16.13
2019-04-04T15:44:17.396Z,16.00
2019-04-04T15:46:46.811Z,14.63
2019-04-04T15:49:16.106Z,16.03
2019-04-04T15:51:45.455Z,15.07
2019-04-04T15:54:14.825Z,15.77
2019-04-04T15:56:44.180Z,17.67
2019-04-04T15:59:13.613Z,18.73
2019-04-04T16:01:42.965Z,17.60
2019-04-04T16:04:12.336Z,18.13
2019-04-04T16:06:41.681Z,15.73
2019-04-04T16:09:11.149Z,18.17
2019-04-04T16:11:49.243Z,18.90
2019-04-04T16:14:11.512Z,17.73
2019-04-04T16:16:40.859Z,15.40
2019-04-04T16:19:10.238Z,16.23
2019-04-04T16:21:39.942Z,14.83
2019-04-04T16:24:09.694Z,14.87
2019-04-04T16:26:39.060Z,14.20
2019-04-04T16:29:08.426Z,12.73
2019-04-04T16:31:37.797Z,10.17
2019-04-04T16:34:07.200Z,10.50
2019-04-04T16:36:36.567Z,10.17
2019-04-04T16:39:08.389Z,8.63
2019-04-04T16:42:01.697Z,10.23
2019-04-04T16:44:20.883Z,8.00
2019-04-04T16:46:50.224Z,7.37
2019-04-04T16:49:19.577Z,6.77
2019-04-04T16:51:48.914Z,7.33
2019-04-04T16:54:18.262Z,6.47
2019-04-04T16:56:47.590Z,5.73
2019-04-04T16:59:16.945Z,6.27
2019-04-04T17:01:46.304Z,6.30
2019-04-04T17:04:15.667Z,6.50
2019-04-04T17:06:44.994Z,6.70
2019-04-04T17:09:14.405Z,5.70
2019-04-04T17:11:43.731Z,5.80
2019-04-04T17:14:13.091Z,5.87
2019-04-04T17:16:42.424Z,6.23
2019-04-04T17:19:11.799Z,6.30
2019-04-04T17:21:41.139Z,6.80
2019-04-04T17:24:10.552Z,7.30
2019-04-04T17:26:39.919Z,8.03
2019-04-04T17:29:09.280Z,6.50
2019-04-04T17:31:38.816Z,5.53
2019-04-04T17:34:08.693Z,8.23
2019-04-04T17:36:38.075Z,6.03
2019-04-04T17:39:08.739Z,7.20
2019-04-04T17:41:38.183Z,7.20
2019-04-04T17:44:07.621Z,7.40
2019-04-04T17:46:37.054Z,6.60
2019-04-04T17:49:06.647Z,6.37
2019-04-04T17:51:36.580Z,6.63
2019-04-04T17:54:06.126Z,5.93
2019-04-04T17:56:35.461Z,7.20
2019-04-04T17:59:04.810Z,6.83
2019-04-04T18:01:34.416Z,9.00
2019-04-04T18:04:03.908Z,8.60
2019-04-04T18:06:33.250Z,7.80
2019-04-04T18:09:02.603Z,7.80
2019-04-04T18:11:31.952Z,8.60
2019-04-04T18:14:01.320Z,9.30
2019-04-04T18:16:30.655Z,9.30
2019-04-04T18:19:00.015Z,8.33
2019-04-04T18:21:29.366Z,7.90
2019-04-04T18:23:58.727Z,7.63
2019-04-04T18:26:28.063Z,10.10
2019-04-04T18:28:57.420Z,9.27
2019-04-04T18:31:26.783Z,8.50
2019-04-04T18:33:56.216Z,8.57
2019-04-04T18:36:25.583Z,11.23
2019-04-04T18:38:54.948Z,10.43
2019-04-04T18:41:24.300Z,10.00
2019-04-04T18:43:53.687Z,8.57
2019-04-04T18:46:23.055Z,12.67
2019-04-04T18:48:52.406Z,11.80
2019-04-04T18:51:21.780Z,13.90
2019-04-04T18:53:51.112Z,12.00
2019-04-04T18:56:20.481Z,13.97
2019-04-04T18:58:49.814Z,18.17
2019-04-04T19:01:19.177Z,15.10
2019-04-04T19:03:48.517Z,16.43
2019-04-04T19:06:17.875Z,15.97
2019-04-04T19:08:47.232Z,16.97
2019-04-04T19:11:16.586Z,18.20
2019-04-04T19:13:45.967Z,14.80
2019-04-04T19:16:15.287Z,15.47
2019-04-04T19:18:44.627Z,15.30
2019-04-04T19:21:13.994Z,18.17
2019-04-04T19:23:49.016Z,16.53
2019-04-04T19:26:14.347Z,15.53
2019-04-04T19:28:43.691Z,16.93
2019-04-04T19:31:13.090Z,17.20
2019-04-04T19:33:42.472Z,17.10
2019-04-04T19:36:11.827Z,16.37
2019-04-04T19:38:41.176Z,16.93
2019-04-04T19:41:10.536Z,15.90
2019-04-04T19:43:39.875Z,15.30
2019-04-04T19:46:09.284Z,13.27
2019-04-04T19:48:38.552Z,13.13
2019-04-04T19:51:07.930Z,10.70
2019-04-04T19:53:37.275Z,12.17
2019-04-04T19:56:06.637Z,9.77
2019-04-04T19:58:35.983Z,10.37
2019-04-04T20:01:06.259Z,9.90
2019-04-04T20:03:35.614Z,8.40
2019-04-04T20:06:04.974Z,9.20
2019-04-04T20:08:34.321Z,11.10
2019-04-04T20:11:03.687Z,7.57
2019-04-04T20:13:33.027Z,9.27
2019-04-04T20:16:02.393Z,9.17
2019-04-04T20:18:31.735Z,7.70
2019-04-04T20:21:01.100Z,9.07
2019-04-04T20:23:30.452Z,8.50
2019-04-04T20:25:59.811Z,8.93
2019-04-04T20:28:29.200Z,8.37
2019-04-04T20:30:58.579Z,8.33
2019-04-04T20:33:27.954Z,9.97
2019-04-04T20:35:57.322Z,11.07
2019-04-04T20:38:26.750Z,10.50
2019-04-04T20:40:56.035Z,8.73
2019-04-04T20:43:25.379Z,10.33
2019-04-04T20:45:54.735Z,11.00
2019-04-04T20:48:24.076Z,9.27
2019-04-04T20:50:53.442Z,8.70
2019-04-04T20:53:22.783Z,9.47
2019-04-04T20:55:52.140Z,8.93
2019-04-04T20:58:21.497Z,9.80
2019-04-04T21:00:50.861Z,8.73
2019-04-04T21:03:20.203Z,8.90
2019-04-04T21:05:49.564Z,8.67
2019-04-04T21:08:18.908Z,10.10
2019-04-04T21:10:48.263Z,9.87
2019-04-04T21:13:17.613Z,9.23
2019-04-04T21:15:47.027Z,9.10
2019-04-04T21:18:16.377Z,9.13
2019-04-04T21:20:45.848Z,9.47
2019-04-04T21:23:15.194Z,10.20
2019-04-04T21:25:44.546Z,9.67
2019-04-04T21:28:13.890Z,10.20
2019-04-04T21:30:43.252Z,10.07
2019-04-04T21:33:12.624Z,8.80
2019-04-04T21:35:41.987Z,10.00
2019-04-04T21:38:11.336Z,8.40
2019-04-04T21:40:40.708Z,10.83
2019-04-04T21:43:10.051Z,9.90
2019-04-04T21:45:39.435Z,10.07
2019-04-04T21:48:08.713Z,9.77
2019-04-04T21:50:38.402Z,10.37
2019-04-04T21:53:07.915Z,11.23
2019-04-04T21:55:37.281Z,8.43
2019-04-04T21:58:06.633Z,10.00
2019-04-04T22:00:43.154Z,10.60
2019-04-04T22:03:12.604Z,10.10
2019-04-04T22:05:41.981Z,10.40
2019-04-04T22:08:11.333Z,9.60
2019-04-04T22:10:40.677Z,10.93
2019-04-04T22:13:10.691Z,9.57
2019-04-04T22:15:40.027Z,10.80
2019-04-04T22:18:09.447Z,10.57
2019-04-04T22:20:38.793Z,11.00
2019-04-04T22:23:08.156Z,9.60
2019-04-04T22:25:37.519Z,10.30
2019-04-04T22:28:06.879Z,10.17
2019-04-04T22:30:36.221Z,10.20
2019-04-04T22:33:05.609Z,10.30
2019-04-04T22:35:34.959Z,10.13
2019-04-04T22:38:04.319Z,11.07
2019-04-04T22:40:33.662Z,11.40
2019-04-04T22:43:03.027Z,12.50
2019-04-04T22:45:32.370Z,12.47
2019-04-04T22:48:01.736Z,14.13
2019-04-04T22:50:31.079Z,12.80
2019-04-04T22:53:00.438Z,12.53
2019-04-04T22:55:29.794Z,12.37
2019-04-04T22:57:59.153Z,10.83
2019-04-04T23:00:28.491Z,14.33
2019-04-04T23:02:58.864Z,14.00
2019-04-04T23:05:28.207Z,12.43
2019-04-04T23:07:57.571Z,13.77
2019-04-04T23:10:27.015Z,12.50
2019-04-04T23:12:56.336Z,13.93
2019-04-04T23:15:25.741Z,12.93
2019-04-04T23:17:55.037Z,15.30
2019-04-04T23:20:24.380Z,12.10
2019-04-04T23:22:53.756Z,14.20
2019-04-04T23:25:23.096Z,12.13
2019-04-04T23:27:52.471Z,14.53
2019-04-04T23:30:21.891Z,11.43
2019-04-04T23:32:51.270Z,14.80
2019-04-04T23:35:20.632Z,14.40
2019-04-04T23:37:49.994Z,13.50
2019-04-04T23:40:19.362Z,14.43
2019-04-04T23:42:48.731Z,13.43
2019-04-04T23:45:18.086Z,13.00
2019-04-04T23:47:47.456Z,13.97
2019-04-04T23:50:16.816Z,15.83
2019-04-04T23:52:46.170Z,15.57
2019-04-04T23:55:15.531Z,14.73
2019-04-04T23:57:44.887Z,17.27
